createdAt,value
2018-01-07T00:00:48.669Z,930.5
2018-01-07T00:01:53.920Z,930.5
2018-01-07T00:02:57.045Z,930.5
2018-01-07T00:04:01.086Z,930.5
2018-01-07T00:05:04.502Z,930.5
2018-01-07T00:06:08.101Z,930.4
2018-01-07T00:07:11.368Z,930.5
2018-01-07T00:08:14.953Z,930.4
2018-01-07T00:09:19.356Z,930.5
2018-01-07T00:10:58.521Z,930.5
2018-01-07T00:12:01.927Z,930.5
2018-01-07T00:13:05.331Z,930.5
2018-01-07T00:14:08.568Z,930.5
2018-01-07T00:15:12.796Z,930.5
2018-01-07T00:16:17.594Z,930.6
2018-01-07T00:17:20.900Z,930.6
2018-01-07T00:18:25.321Z,930.5
2018-01-07T00:19:29.496Z,930.5
2018-01-07T00:20:33.360Z,930.6
2018-01-07T00:21:43.407Z,930.5
2018-01-07T00:22:46.853Z,930.6
2018-01-07T00:23:50.113Z,930.5
2018-01-07T00:24:53.612Z,930.6
2018-01-07T00:26:01.892Z,930.6
2018-01-07T00:27:05.700Z,930.6
2018-01-07T00:28:10.895Z,930.6
2018-01-07T00:29:18.482Z,930.6
2018-01-07T00:30:22.853Z,930.6
2018-01-07T00:31:27.404Z,930.6
2018-01-07T00:32:38.777Z,930.6
2018-01-07T00:33:42.451Z,930.6
2018-01-07T00:34:49.430Z,930.7
2018-01-07T00:35:52.823Z,930.5
2018-01-07T00:36:58.459Z,930.6
2018-01-07T00:38:02.609Z,930.6
2018-01-07T00:39:07.827Z,930.6
2018-01-07T00:40:12.480Z,930.7
2018-01-07T00:41:15.942Z,930.7
2018-01-07T00:42:22.518Z,930.7
2018-01-07T00:43:29.360Z,930.7
2018-01-07T00:44:35.728Z,930.6
2018-01-07T00:45:40.473Z,930.6
2018-01-07T00:46:44.514Z,930.6
2018-01-07T00:47:49.987Z,930.6
2018-01-07T00:48:54.861Z,930.7
2018-01-07T00:49:58.243Z,930.7
2018-01-07T00:51:03.652Z,930.6
2018-01-07T00:52:07.064Z,930.7
2018-01-07T00:53:15.247Z,930.7
2018-01-07T00:54:24.698Z,930.6
2018-01-07T00:55:30.708Z,930.7
2018-01-07T00:56:34.909Z,930.7
2018-01-07T00:57:38.327Z,930.7
2018-01-07T00:58:44.313Z,930.7
2018-01-07T00:59:48.347Z,930.7
2018-01-07T01:00:51.796Z,930.7
2018-01-07T01:01:57.186Z,930.7
2018-01-07T01:03:03.430Z,930.8
2018-01-07T01:04:07.540Z,930.7
2018-01-07T01:05:18.411Z,930.8
2018-01-07T01:06:24.791Z,930.8
2018-01-07T01:07:30.374Z,930.8
2018-01-07T01:08:35.813Z,931
2018-01-07T01:09:39.171Z,930.9
2018-01-07T01:10:47.732Z,930.9
2018-01-07T01:11:53.490Z,931
2018-01-07T01:12:59.188Z,930.9
2018-01-07T01:14:05.350Z,930.9
2018-01-07T01:15:12.335Z,931
2018-01-07T01:16:24.138Z,930.9
2018-01-07T01:17:29.778Z,931
2018-01-07T01:18:36.134Z,930.9
2018-01-07T01:19:42.632Z,927.3
2018-01-07T01:20:49.172Z,930.9
2018-01-07T01:21:54.485Z,931
2018-01-07T01:22:58.506Z,931
2018-01-07T01:24:06.071Z,931
2018-01-07T01:25:11.741Z,931
2018-01-07T01:26:17.023Z,931.1
2018-01-07T01:27:28.798Z,931
2018-01-07T01:28:33.038Z,931.1
2018-01-07T01:29:39.560Z,928.8
2018-01-07T01:30:44.715Z,931.2
2018-01-07T01:31:49.353Z,931.2
2018-01-07T01:32:54.111Z,931.1
2018-01-07T01:33:57.469Z,931.1
2018-01-07T01:35:03.066Z,931.1
2018-01-07T01:36:07.021Z,931.1
2018-01-07T01:37:12.105Z,931.1
2018-01-07T01:38:19.893Z,931.1
2018-01-07T01:39:26.163Z,931.2
2018-01-07T01:40:33.073Z,931.2
2018-01-07T01:41:37.113Z,931.3
2018-01-07T01:42:44.864Z,931.3
2018-01-07T01:43:51.310Z,931.3
2018-01-07T01:44:55.203Z,931.2
2018-01-07T01:45:59.390Z,931.2
2018-01-07T01:47:03.472Z,931.2
2018-01-07T01:48:07.583Z,931.3
2018-01-07T01:49:18.020Z,931.4
2018-01-07T01:50:23.565Z,931.4
2018-01-07T01:51:28.912Z,931.3
2018-01-07T01:52:34.552Z,931.4
2018-01-07T01:53:38.503Z,931.3
2018-01-07T01:54:44.115Z,931.3
2018-01-07T01:55:47.470Z,931.4
2018-01-07T01:56:53.582Z,931.4
2018-01-07T01:57:56.990Z,931.4
2018-01-07T01:59:04.681Z,931.5
2018-01-07T02:00:14.298Z,931.6
2018-01-07T02:01:19.696Z,931.4
2018-01-07T02:02:25.160Z,931.5
2018-01-07T02:03:29.674Z,931.5
2018-01-07T02:04:35.378Z,931.4
2018-01-07T02:05:41.895Z,931.5
2018-01-07T02:06:45.270Z,931.4
2018-01-07T02:07:52.526Z,931.5
2018-01-07T02:08:56.009Z,931.6
2018-01-07T02:10:01.031Z,931.6
2018-01-07T02:11:10.730Z,931.6
2018-01-07T02:12:14.061Z,931.5
2018-01-07T02:13:18.159Z,931.6
2018-01-07T02:14:21.637Z,931.5
2018-01-07T02:15:24.987Z,931.6
2018-01-07T02:16:30.216Z,931.5
2018-01-07T02:17:35.795Z,931.6
2018-01-07T02:18:40.171Z,931.6
2018-01-07T02:19:43.600Z,931.7
2018-01-07T02:20:47.007Z,931.6
2018-01-07T02:21:54.733Z,931.6
2018-01-07T02:23:02.990Z,931.6
2018-01-07T02:24:07.139Z,931.5
2018-01-07T02:25:11.155Z,931.7
2018-01-07T02:26:18.787Z,931.5
2018-01-07T02:27:22.791Z,931.6
2018-01-07T02:28:28.404Z,931.5
2018-01-07T02:29:32.418Z,931.7
2018-01-07T02:30:37.882Z,931.6
2018-01-07T02:31:43.124Z,931.6
2018-01-07T02:32:52.366Z,931.7
2018-01-07T02:33:55.622Z,931.6
2018-01-07T02:35:04.618Z,931.6
2018-01-07T02:36:07.903Z,931.6
2018-01-07T02:37:11.343Z,931.6
2018-01-07T02:38:20.816Z,931.7
2018-01-07T02:39:26.351Z,931.7
2018-01-07T02:40:29.832Z,931.6
2018-01-07T02:41:32.852Z,931.7
2018-01-07T02:42:38.058Z,931.7
2018-01-07T02:47:17.297Z,931.6
2018-01-07T02:48:20.671Z,931.6
2018-01-07T02:49:25.420Z,931.7
2018-01-07T02:50:28.630Z,931.7
2018-01-07T02:51:32.124Z,931.7
2018-01-07T02:52:36.520Z,931.7
2018-01-07T02:53:41.032Z,931.7
2018-01-07T02:54:44.291Z,931.7
2018-01-07T02:55:48.606Z,931.7
2018-01-07T02:56:55.405Z,931.7
2018-01-07T02:58:02.728Z,931.7
2018-01-07T02:59:08.256Z,931.7
2018-01-07T03:00:15.709Z,931.8
2018-01-07T03:01:21.249Z,931.8
2018-01-07T03:02:27.637Z,931.7
2018-01-07T03:03:33.013Z,931.7
2018-01-07T03:04:40.157Z,931.7
2018-01-07T03:05:44.738Z,931.7
2018-01-07T03:06:48.154Z,931.8
2018-01-07T03:07:53.642Z,931.7
2018-01-07T03:09:00.903Z,931.7
2018-01-07T03:10:04.621Z,931.7
2018-01-07T03:11:10.103Z,931.8
2018-01-07T03:12:13.379Z,931.8
2018-01-07T03:13:19.860Z,931.9
2018-01-07T03:14:23.922Z,931.9
2018-01-07T03:15:31.502Z,931.8
2018-01-07T03:16:34.795Z,931.8
2018-01-07T03:17:40.586Z,931.8
2018-01-07T03:18:44.891Z,931.9
2018-01-07T03:20:27.282Z,931.8
2018-01-07T03:21:34.350Z,931.8
2018-01-07T03:22:38.499Z,931.8
2018-01-07T03:23:45.104Z,931.7
2018-01-07T03:24:49.627Z,931.7
2018-01-07T03:25:55.488Z,931.7
2018-01-07T03:27:04.313Z,931.6
2018-01-07T03:28:10.064Z,931.7
2018-01-07T03:29:16.174Z,931.6
2018-01-07T03:30:21.490Z,931.7
2018-01-07T03:32:02.206Z,931.6
2018-01-07T03:33:05.479Z,931.6
2018-01-07T03:34:08.847Z,931.7
2018-01-07T03:35:17.562Z,931.7
2018-01-07T03:36:23.144Z,931.7
2018-01-07T03:37:27.037Z,931.8
2018-01-07T03:38:30.413Z,931.8
2018-01-07T03:39:35.164Z,931.7
2018-01-07T03:40:41.120Z,931.7
2018-01-07T03:41:44.312Z,931.7
2018-01-07T03:42:54.148Z,931.7
2018-01-07T03:43:59.809Z,931.7
2018-01-07T03:45:07.544Z,931.6
2018-01-07T03:46:13.182Z,931.7
2018-01-07T03:47:16.552Z,931.5
2018-01-07T03:48:22.920Z,927.6
2018-01-07T03:49:28.386Z,931.6
2018-01-07T03:50:41.662Z,931.7
2018-01-07T03:51:45.779Z,930.7
2018-01-07T03:52:50.031Z,931.7
2018-01-07T03:54:01.896Z,931.8
2018-01-07T03:55:09.321Z,927.5
2018-01-07T03:56:13.991Z,931.7
2018-01-07T03:57:17.451Z,931.6
2018-01-07T03:58:25.083Z,931.7
2018-01-07T03:59:30.601Z,931.7
2018-01-07T04:00:38.331Z,931.7
2018-01-07T04:01:42.437Z,931.7
2018-01-07T04:02:50.137Z,931.6
2018-01-07T04:03:55.707Z,931.7
2018-01-07T04:05:03.387Z,931.6
2018-01-07T04:06:11.119Z,931.7
2018-01-07T04:07:15.113Z,931.6
2018-01-07T04:08:20.578Z,931.7
2018-01-07T04:09:28.242Z,931.7
2018-01-07T04:10:32.975Z,931.5
2018-01-07T04:11:38.497Z,931.7
2018-01-07T04:12:46.243Z,931.6
2018-01-07T04:13:51.810Z,931.7
2018-01-07T04:14:55.708Z,931.7
2018-01-07T04:16:04.521Z,931.7
2018-01-07T04:17:08.481Z,931.6
2018-01-07T04:18:12.210Z,931.7
2018-01-07T04:19:16.333Z,931.7
2018-01-07T04:20:19.616Z,931.7
2018-01-07T04:21:22.825Z,931.8
2018-01-07T04:22:26.761Z,931.8
2018-01-07T04:23:30.676Z,931.7
2018-01-07T04:24:33.660Z,931.8
2018-01-07T04:25:42.049Z,931.7
2018-01-07T04:26:51.475Z,931.7
2018-01-07T04:27:56.189Z,931.7
2018-01-07T04:28:59.729Z,931.7
2018-01-07T04:30:03.893Z,930.9
2018-01-07T04:31:09.347Z,931.8
2018-01-07T04:32:12.954Z,931.7
2018-01-07T04:33:19.164Z,931.7
2018-01-07T04:34:22.515Z,931.7
2018-01-07T04:35:28.186Z,931.7
2018-01-07T04:36:33.729Z,931.7
2018-01-07T04:37:47.032Z,931.7
2018-01-07T04:38:52.541Z,931.7
2018-01-07T04:40:00.198Z,931.7
2018-01-07T04:41:05.113Z,931.8
2018-01-07T04:42:09.195Z,931.8
2018-01-07T04:43:16.132Z,931.8
2018-01-07T04:44:21.596Z,931.8
2018-01-07T04:45:27.091Z,931.9
2018-01-07T04:46:34.343Z,931.9
2018-01-07T04:47:38.829Z,932.1
2018-01-07T04:48:45.766Z,932
2018-01-07T04:49:51.292Z,932
2018-01-07T04:50:54.622Z,932
2018-01-07T04:51:59.238Z,932
2018-01-07T04:53:03.304Z,932
2018-01-07T04:54:08.973Z,932
2018-01-07T04:55:16.671Z,932
2018-01-07T04:56:22.341Z,932
2018-01-07T04:57:28.793Z,932.1
2018-01-07T04:58:32.733Z,932.1
2018-01-07T04:59:41.839Z,932
2018-01-07T05:00:47.365Z,932
2018-01-07T05:01:54.434Z,932
2018-01-07T05:02:58.002Z,932
2018-01-07T05:04:01.492Z,932
2018-01-07T05:05:07.403Z,932
2018-01-07T05:06:12.758Z,931.8
2018-01-07T05:07:18.161Z,931.9
2018-01-07T05:08:23.793Z,931.8
2018-01-07T05:09:30.817Z,931.9
2018-01-07T05:10:40.331Z,931.9
2018-01-07T05:11:45.619Z,931.9
2018-01-07T05:12:51.121Z,931.9
2018-01-07T05:13:54.341Z,931.9
2018-01-07T05:14:58.853Z,931.9
2018-01-07T05:16:01.901Z,932
2018-01-07T05:17:06.839Z,930.3
2018-01-07T05:18:12.465Z,932
2018-01-07T05:19:17.047Z,931.9
2018-01-07T05:20:23.307Z,931.9
2018-01-07T05:21:33.125Z,931.9
2018-01-07T05:22:38.665Z,931.9
2018-01-07T05:23:43.270Z,931.9
2018-01-07T05:24:49.777Z,931.8
2018-01-07T05:25:53.218Z,931.9
2018-01-07T05:26:58.858Z,932
2018-01-07T05:28:04.273Z,932
2018-01-07T05:29:07.618Z,931.9
2018-01-07T05:30:10.897Z,932
2018-01-07T05:31:19.233Z,932
2018-01-07T05:32:28.286Z,932
2018-01-07T05:33:32.268Z,932
2018-01-07T05:34:36.130Z,932
2018-01-07T05:35:39.600Z,932
2018-01-07T05:36:44.246Z,932
2018-01-07T05:37:49.725Z,932
2018-01-07T05:38:53.202Z,932
2018-01-07T05:39:58.808Z,932
2018-01-07T05:41:04.598Z,932
2018-01-07T05:42:08.218Z,932.2
2018-01-07T05:43:15.137Z,932.1
2018-01-07T05:44:20.910Z,932.2
2018-01-07T05:45:26.792Z,932.2
2018-01-07T05:46:34.640Z,932.3
2018-01-07T05:47:40.992Z,932.2
2018-01-07T05:48:44.886Z,932.2
2018-01-07T05:49:48.333Z,932.4
2018-01-07T05:50:51.694Z,932.3
2018-01-07T05:51:57.795Z,932.3
2018-01-07T05:53:01.856Z,932.2
2018-01-07T05:54:43.820Z,932.3
2018-01-07T05:55:49.396Z,932.3
2018-01-07T05:56:54.948Z,932.3
2018-01-07T05:58:01.313Z,932.3
2018-01-07T05:59:05.424Z,932.3
2018-01-07T06:00:11.075Z,932.6
2018-01-07T06:01:17.613Z,932.3
2018-01-07T06:02:23.143Z,932.4
2018-01-07T06:03:28.213Z,932.2
2018-01-07T06:04:33.007Z,932.3
2018-01-07T06:05:43.099Z,932.4
2018-01-07T06:06:49.379Z,932.4
2018-01-07T06:07:52.725Z,932.3
2018-01-07T06:08:56.752Z,932.4
2018-01-07T06:10:03.888Z,932.5
2018-01-07T06:11:09.287Z,932.4
2018-01-07T06:12:14.774Z,932.3
2018-01-07T06:13:19.132Z,932.4
2018-01-07T06:14:22.604Z,932.4
2018-01-07T06:15:26.893Z,932.4
2018-01-07T06:16:38.433Z,932.4
2018-01-07T06:17:42.851Z,932.4
2018-01-07T06:18:48.482Z,932.5
2018-01-07T06:19:56.499Z,932.4
2018-01-07T06:20:59.719Z,932.4
2018-01-07T06:22:05.284Z,932.4
2018-01-07T06:23:11.505Z,932.5
2018-01-07T06:24:18.962Z,932.5
2018-01-07T06:25:24.384Z,932.4
2018-01-07T06:26:29.822Z,932.4
2018-01-07T06:27:40.620Z,932.5
2018-01-07T06:28:45.147Z,931.4
2018-01-07T06:29:51.273Z,932.6
2018-01-07T06:30:55.413Z,932.6
2018-01-07T06:32:01.631Z,932.5
2018-01-07T06:33:04.975Z,932.7
2018-01-07T06:34:11.106Z,932.6
2018-01-07T06:35:14.722Z,932.6
2018-01-07T06:36:21.947Z,932.6
2018-01-07T06:37:26.284Z,932.7
2018-01-07T06:38:39.575Z,932.7
2018-01-07T06:39:43.136Z,932.8
2018-01-07T06:40:48.525Z,932.8
2018-01-07T06:41:54.172Z,932.7
2018-01-07T06:42:59.543Z,932.8
2018-01-07T06:44:05.892Z,932.8
2018-01-07T06:45:12.487Z,932.8
2018-01-07T06:46:18.251Z,932.7
2018-01-07T06:47:24.703Z,932.8
2018-01-07T06:48:28.341Z,932.8
2018-01-07T06:49:35.953Z,932.9
2018-01-07T06:50:42.878Z,932.9
2018-01-07T06:51:46.310Z,932.9
2018-01-07T06:52:50.216Z,932.9
2018-01-07T06:53:54.492Z,933
2018-01-07T06:55:01.603Z,933
2018-01-07T06:56:05.559Z,932.9
2018-01-07T06:57:11.858Z,933.1
2018-01-07T06:58:17.015Z,933.1
2018-01-07T06:59:21.881Z,933.1
2018-01-07T07:01:01.383Z,933
2018-01-07T07:02:05.112Z,933.1
2018-01-07T07:03:10.259Z,929
2018-01-07T07:04:14.216Z,933.1
2018-01-07T07:05:17.734Z,933.1
2018-01-07T07:06:21.606Z,933.1
2018-01-07T07:07:26.037Z,933
2018-01-07T07:08:30.510Z,933
2018-01-07T07:09:36.692Z,933.1
2018-01-07T07:10:40.006Z,933.2
2018-01-07T07:11:48.861Z,933.2
2018-01-07T07:12:54.228Z,933.2
2018-01-07T07:13:58.952Z,933.2
2018-01-07T07:15:02.424Z,933.2
2018-01-07T07:16:06.458Z,933.2
2018-01-07T07:17:13.591Z,933.3
2018-01-07T07:18:16.991Z,933.2
2018-01-07T07:19:22.583Z,933.3
2018-01-07T07:20:26.538Z,933.4
2018-01-07T07:21:32.073Z,933.3
2018-01-07T07:22:44.044Z,933.3
2018-01-07T07:23:48.061Z,933.3
2018-01-07T07:24:51.397Z,933.3
2018-01-07T07:25:59.729Z,933.4
2018-01-07T07:27:05.298Z,933.3
2018-01-07T07:28:10.846Z,933.4
2018-01-07T07:29:16.783Z,933.4
2018-01-07T07:30:20.593Z,933.5
2018-01-07T07:31:23.987Z,933.4
2018-01-07T07:32:27.413Z,933.5
2018-01-07T07:33:37.854Z,933.5
2018-01-07T07:34:47.349Z,933.6
2018-01-07T07:35:51.429Z,933.6
2018-01-07T07:36:56.306Z,933.6
2018-01-07T07:38:01.641Z,933.6
2018-01-07T07:39:08.742Z,933.7
2018-01-07T07:40:13.553Z,933.6
2018-01-07T07:41:27.255Z,933.7
2018-01-07T07:42:33.299Z,933.7
2018-01-07T07:43:37.825Z,933.8
2018-01-07T07:44:48.065Z,933.7
2018-01-07T07:45:55.361Z,933.8
2018-01-07T07:46:58.635Z,933.9
2018-01-07T07:48:03.840Z,933.8
2018-01-07T07:49:07.014Z,933.9
2018-01-07T07:50:11.226Z,934
2018-01-07T07:51:14.958Z,930
2018-01-07T07:52:18.452Z,933.9
2018-01-07T07:53:23.118Z,933.9
2018-01-07T07:54:27.473Z,933.9
2018-01-07T07:55:40.765Z,933.9
2018-01-07T07:56:44.156Z,933.8
2018-01-07T07:57:47.607Z,933.9
2018-01-07T07:58:52.523Z,934
2018-01-07T07:59:56.517Z,934
2018-01-07T08:01:03.058Z,934
2018-01-07T08:02:07.077Z,934
2018-01-07T08:03:10.331Z,934.1
2018-01-07T08:04:14.414Z,934
2018-01-07T08:05:19.125Z,934
2018-01-07T08:06:58.706Z,934
2018-01-07T08:08:04.274Z,934
2018-01-07T08:09:09.067Z,934
2018-01-07T08:11:48.139Z,934.1
2018-01-07T08:12:53.337Z,934.1
2018-01-07T08:13:56.658Z,934.3
2018-01-07T08:15:04.505Z,934.1
2018-01-07T08:16:10.080Z,934.2
2018-01-07T08:17:13.600Z,934.2
2018-01-07T08:18:21.592Z,934.3
2018-01-07T08:19:31.252Z,934.3
2018-01-07T08:20:34.481Z,934.3
2018-01-07T08:21:38.705Z,934.2
2018-01-07T08:22:42.140Z,934.1
2018-01-07T08:23:45.560Z,934.1
2018-01-07T08:24:52.000Z,934.1
2018-01-07T08:25:55.394Z,934.1
2018-01-07T08:26:58.881Z,934.1
2018-01-07T08:28:02.441Z,934.2
2018-01-07T08:29:07.076Z,934.2
2018-01-07T08:30:16.728Z,934.3
2018-01-07T08:31:20.304Z,934.3
2018-01-07T08:32:24.249Z,934.3
2018-01-07T08:33:28.121Z,934.4
2018-01-07T08:34:32.192Z,934.4
2018-01-07T08:35:37.893Z,934.5
2018-01-07T08:36:43.311Z,930.3
2018-01-07T08:37:48.914Z,934.6
2018-01-07T08:38:53.012Z,934.6
2018-01-07T08:39:57.297Z,934.6
2018-01-07T08:41:07.952Z,934.6
2018-01-07T08:42:13.543Z,934.5
2018-01-07T08:43:16.871Z,934.6
2018-01-07T08:44:20.918Z,934.6
2018-01-07T08:45:25.661Z,934.6
2018-01-07T08:46:31.176Z,934.5
2018-01-07T08:47:36.781Z,934.6
2018-01-07T08:48:43.336Z,934.6
2018-01-07T08:49:47.525Z,934.6
2018-01-07T08:50:51.951Z,934.6
2018-01-07T08:51:58.948Z,934.6
2018-01-07T08:53:04.274Z,934.5
2018-01-07T08:54:09.938Z,934.5
2018-01-07T08:55:14.532Z,934.7
2018-01-07T08:56:18.039Z,934.7
2018-01-07T08:57:25.683Z,934.8
2018-01-07T08:58:30.328Z,934.7
2018-01-07T08:59:36.196Z,934.7
2018-01-07T09:00:46.033Z,934.6
2018-01-07T09:01:50.404Z,934.7
2018-01-07T09:02:59.945Z,934.7
2018-01-07T09:04:04.755Z,934.8
2018-01-07T09:05:08.298Z,934.8
2018-01-07T09:06:14.495Z,934.8
2018-01-07T09:07:19.189Z,934.6
2018-01-07T09:08:23.894Z,934.9
2018-01-07T09:09:27.454Z,934.8
2018-01-07T09:10:31.750Z,934.8
2018-01-07T09:11:36.616Z,935
2018-01-07T09:12:41.556Z,934.9
2018-01-07T09:13:48.481Z,934.8
2018-01-07T09:14:52.096Z,935
2018-01-07T09:15:55.498Z,935
2018-01-07T09:16:58.996Z,935
2018-01-07T09:18:03.349Z,935
2018-01-07T09:19:10.834Z,935
2018-01-07T09:20:14.435Z,934.9
2018-01-07T09:21:17.926Z,935
2018-01-07T09:22:23.639Z,935
2018-01-07T09:23:29.291Z,935
2018-01-07T09:24:37.529Z,934.8
2018-01-07T09:25:45.058Z,934.9
2018-01-07T09:26:50.727Z,934.9
2018-01-07T09:27:58.649Z,935
2018-01-07T09:29:02.089Z,934.9
2018-01-07T09:30:06.466Z,935
2018-01-07T09:31:12.016Z,934.9
2018-01-07T09:32:15.432Z,935.1
2018-01-07T09:33:19.413Z,935
2018-01-07T09:34:24.485Z,935
2018-01-07T09:35:32.132Z,934.9
2018-01-07T09:36:36.165Z,935
2018-01-07T09:37:39.647Z,935.1
2018-01-07T09:38:44.435Z,935.1
2018-01-07T09:39:47.865Z,935.1
2018-01-07T09:40:51.357Z,935.1
2018-01-07T09:41:55.551Z,935
2018-01-07T09:42:59.284Z,935
2018-01-07T09:44:03.334Z,935
2018-01-07T09:45:06.883Z,935
2018-01-07T09:46:13.808Z,935
2018-01-07T09:47:19.218Z,935.1
2018-01-07T09:48:24.363Z,935.1
2018-01-07T09:49:29.935Z,935.1
2018-01-07T09:52:28.049Z,935.1
2018-01-07T09:54:44.922Z,935.1
2018-01-07T10:00:31.012Z,935.1
2018-01-07T10:01:34.503Z,935.1
2018-01-07T10:02:37.850Z,935.2
2018-01-07T10:03:41.554Z,935.2
2018-01-07T10:04:44.918Z,935.2
2018-01-07T10:05:48.311Z,935.1
2018-01-07T10:06:51.999Z,935.1
2018-01-07T10:07:56.188Z,935.1
2018-01-07T10:09:02.377Z,935.2
2018-01-07T10:10:12.713Z,935.1
2018-01-07T10:11:16.787Z,935.1
2018-01-07T10:12:20.239Z,935.2
2018-01-07T10:13:23.565Z,935.2
2018-01-07T10:14:28.137Z,935.2
2018-01-07T10:15:31.597Z,935.1
2018-01-07T10:16:35.103Z,935.1
2018-01-07T10:17:38.548Z,935.1
2018-01-07T10:18:41.850Z,935
2018-01-07T10:19:45.141Z,935.1
2018-01-07T10:20:52.261Z,935.2
2018-01-07T10:21:55.730Z,935.2
2018-01-07T10:23:00.283Z,935.1
2018-01-07T10:24:03.837Z,935.2
2018-01-07T10:25:07.281Z,935.1
2018-01-07T10:26:10.641Z,935.2
2018-01-07T10:27:15.466Z,935.1
2018-01-07T10:28:18.769Z,935.1
2018-01-07T10:29:22.210Z,935
2018-01-07T10:30:25.612Z,935.1
2018-01-07T10:31:32.792Z,935.1
2018-01-07T10:32:36.822Z,935.2
2018-01-07T10:33:40.932Z,935.2
2018-01-07T10:34:45.714Z,935.2
2018-01-07T10:35:53.371Z,935.3
2018-01-07T10:36:56.769Z,935.2
2018-01-07T10:38:00.911Z,935.2
2018-01-07T10:39:05.471Z,935.2
2018-01-07T10:40:09.086Z,935.2
2018-01-07T10:41:14.375Z,935.3
2018-01-07T10:42:21.952Z,935.2
2018-01-07T10:43:31.999Z,935.3
2018-01-07T10:44:37.714Z,931.2
2018-01-07T10:45:44.438Z,935.2
2018-01-07T10:46:50.368Z,935.4
2018-01-07T10:48:09.510Z,935.3
2018-01-07T10:49:13.110Z,935.5
2018-01-07T10:50:16.542Z,935.2
2018-01-07T10:51:20.056Z,935.3
2018-01-07T10:52:23.491Z,935.2
2018-01-07T10:53:54.405Z,935.2
2018-01-07T10:54:57.821Z,935.2
2018-01-07T10:56:02.468Z,935.2
2018-01-07T10:57:05.933Z,935.3
2018-01-07T10:58:09.845Z,935.2
2018-01-07T10:59:15.306Z,935.2
2018-01-07T11:00:20.059Z,935.2
2018-01-07T11:01:23.604Z,935.2
2018-01-07T11:02:27.069Z,935.2
2018-01-07T11:03:30.591Z,935.2
2018-01-07T11:04:37.616Z,935.2
2018-01-07T11:05:41.184Z,935.2
2018-01-07T11:06:44.615Z,935.2
2018-01-07T11:07:48.015Z,935.3
2018-01-07T11:08:51.415Z,935.2
2018-01-07T11:09:55.494Z,935.3
2018-01-07T11:10:59.687Z,935.3
2018-01-07T11:12:02.762Z,935.4
2018-01-07T11:13:06.887Z,935.3
2018-01-07T11:14:10.983Z,935.3
2018-01-07T11:15:17.979Z,935.2
2018-01-07T11:16:23.059Z,935.2
2018-01-07T11:17:26.652Z,935.3
2018-01-07T11:18:33.908Z,935.2
2018-01-07T11:19:38.832Z,935.2
2018-01-07T11:20:43.974Z,935
2018-01-07T11:21:50.452Z,935.1
2018-01-07T11:22:54.592Z,935.1
2018-01-07T11:23:59.565Z,935.1
2018-01-07T11:25:03.609Z,935.2
2018-01-07T11:26:46.200Z,931.2
2018-01-07T11:27:49.857Z,935.2
2018-01-07T11:28:53.341Z,935.2
2018-01-07T11:29:59.133Z,935.3
2018-01-07T11:31:03.693Z,935.4
2018-01-07T11:32:10.949Z,935.3
2018-01-07T11:33:14.530Z,935.3
2018-01-07T11:34:19.251Z,935.1
2018-01-07T11:35:23.349Z,935.2
2018-01-07T11:36:27.412Z,935.3
2018-01-07T11:37:36.691Z,935.3
2018-01-07T11:38:41.089Z,935.2
2018-01-07T11:39:45.789Z,935.2
2018-01-07T11:40:50.354Z,935.2
2018-01-07T11:41:54.920Z,935.2
2018-01-07T11:42:59.137Z,935.2
2018-01-07T11:44:03.951Z,935.3
2018-01-07T11:45:07.441Z,935.4
2018-01-07T11:46:10.968Z,935.3
2018-01-07T11:47:14.810Z,935.3
2018-01-07T11:48:23.519Z,935.3
2018-01-07T11:49:30.931Z,935.4
2018-01-07T11:50:35.141Z,935.3
2018-01-07T11:51:43.713Z,935.3
2018-01-07T11:52:54.127Z,935.3
2018-01-07T11:53:59.936Z,935.2
2018-01-07T11:55:04.660Z,935.2
2018-01-07T11:56:09.389Z,935.3
2018-01-07T11:57:15.891Z,935.3
2018-01-07T11:58:21.029Z,935.3
2018-01-07T11:59:34.297Z,935.2
2018-01-07T12:00:40.431Z,935.3
2018-01-07T12:01:45.125Z,935.2
2018-01-07T12:02:51.356Z,935.3
2018-01-07T12:03:54.749Z,935.3
2018-01-07T12:04:58.262Z,935.3
2018-01-07T12:06:02.343Z,935.3
2018-01-07T12:07:05.785Z,935.3
2018-01-07T12:08:17.348Z,935.3
2018-01-07T12:09:21.460Z,935.3
2018-01-07T12:11:03.410Z,935.3
2018-01-07T12:12:06.949Z,935.3
2018-01-07T12:13:11.215Z,935.2
2018-01-07T12:14:14.778Z,935.2
2018-01-07T12:15:18.778Z,935.2
2018-01-07T12:16:22.043Z,935.3
2018-01-07T12:17:26.384Z,935.3
2018-01-07T12:18:30.566Z,935.3
2018-01-07T12:19:33.989Z,935.4
2018-01-07T12:20:39.586Z,935.3
2018-01-07T12:21:47.446Z,935.3
2018-01-07T12:22:50.868Z,935.2
2018-01-07T12:23:54.477Z,935.1
2018-01-07T12:24:57.858Z,935.2
2018-01-07T12:26:01.319Z,935.3
2018-01-07T12:27:04.913Z,931.7
2018-01-07T12:28:08.397Z,935.3
2018-01-07T12:29:11.960Z,935.4
2018-01-07T12:30:16.157Z,935.3
2018-01-07T12:31:22.027Z,935.4
2018-01-07T12:32:29.839Z,935.4
2018-01-07T12:33:33.419Z,935.4
2018-01-07T12:34:39.745Z,935.4
2018-01-07T12:35:43.130Z,935.4
2018-01-07T12:36:46.599Z,935.4
2018-01-07T12:37:49.995Z,935.3
2018-01-07T12:38:53.420Z,935.4
2018-01-07T12:39:57.955Z,935.4
2018-01-07T12:41:02.059Z,935.4
2018-01-07T12:42:06.142Z,935.4
2018-01-07T12:43:15.197Z,935.4
2018-01-07T12:44:19.392Z,935.4
2018-01-07T12:45:26.925Z,935.3
2018-01-07T12:46:31.070Z,935.3
2018-01-07T12:47:36.845Z,935.3
2018-01-07T12:48:42.488Z,935.4
2018-01-07T12:49:46.271Z,935.4
2018-01-07T12:50:52.548Z,935.5
2018-01-07T12:51:56.133Z,935.4
2018-01-07T12:52:59.598Z,935.4
2018-01-07T12:54:11.595Z,935.5
2018-01-07T12:55:19.486Z,935.5
2018-01-07T12:56:23.484Z,935.4
2018-01-07T12:57:28.879Z,935.4
2018-01-07T12:58:33.552Z,935.4
2018-01-07T12:59:37.907Z,935.4
2018-01-07T13:00:44.295Z,931.7
2018-01-07T13:01:47.798Z,935.3
2018-01-07T13:02:56.280Z,935.3
2018-01-07T13:04:01.794Z,935.3
2018-01-07T13:05:09.231Z,935.3
2018-01-07T13:06:13.268Z,935.3
2018-01-07T13:07:16.799Z,935.3
2018-01-07T13:08:22.451Z,935.3
2018-01-07T13:09:25.814Z,935.3
2018-01-07T13:10:31.489Z,935.3
2018-01-07T13:11:39.367Z,935.4
2018-01-07T13:12:42.812Z,935.4
2018-01-07T13:13:48.441Z,935.4
2018-01-07T13:14:53.979Z,935.4
2018-01-07T13:16:05.832Z,935.3
2018-01-07T13:17:14.165Z,935.4
2018-01-07T13:18:19.682Z,935.5
2018-01-07T13:19:27.024Z,935.4
2018-01-07T13:20:32.467Z,935.5
2018-01-07T13:21:35.828Z,935.5
2018-01-07T13:22:39.481Z,931.4
2018-01-07T13:23:46.121Z,935.5
2018-01-07T13:24:51.654Z,935.5
2018-01-07T13:25:55.098Z,935.5
2018-01-07T13:27:03.426Z,935.5
2018-01-07T13:28:08.691Z,935.6
2018-01-07T13:29:13.362Z,935.5
2018-01-07T13:30:16.775Z,935.6
2018-01-07T13:31:20.344Z,935.6
2018-01-07T13:32:23.865Z,935.6
2018-01-07T13:33:29.020Z,935.6
2018-01-07T13:34:33.477Z,935.6
2018-01-07T13:35:37.086Z,935.5
2018-01-07T13:36:40.712Z,935.5
2018-01-07T13:37:47.604Z,935.6
2018-01-07T13:38:51.594Z,935.6
2018-01-07T13:39:57.920Z,935.6
2018-01-07T13:41:01.634Z,935.6
2018-01-07T13:42:04.939Z,935.6
2018-01-07T13:43:08.564Z,932.3
2018-01-07T13:44:12.569Z,935.6
2018-01-07T13:45:15.888Z,935.5
2018-01-07T13:46:20.008Z,935.7
2018-01-07T13:47:24.097Z,935.6
2018-01-07T13:48:32.909Z,935.8
2018-01-07T13:50:05.836Z,935.7
2018-01-07T13:51:09.465Z,935.6
2018-01-07T13:52:13.572Z,935.7
2018-01-07T13:53:17.628Z,935.6
2018-01-07T13:54:23.280Z,935.7
2018-01-07T13:55:26.690Z,935.7
2018-01-07T13:56:30.946Z,935.8
2018-01-07T13:57:34.687Z,935.9
2018-01-07T13:58:38.765Z,935.8
2018-01-07T13:59:46.730Z,935.9
2018-01-07T14:00:49.945Z,935.8
2018-01-07T14:01:54.297Z,935.8
2018-01-07T14:02:57.854Z,932.1
2018-01-07T14:04:01.109Z,935.8
2018-01-07T14:05:04.680Z,935.8
2018-01-07T14:06:09.127Z,935.8
2018-01-07T14:07:13.171Z,935.8
2018-01-07T14:08:17.966Z,935.8
2018-01-07T14:09:22.734Z,935.5
2018-01-07T14:10:31.683Z,935.8
2018-01-07T14:11:36.431Z,935.5
2018-01-07T14:12:40.586Z,935.7
2018-01-07T14:13:44.250Z,935.7
2018-01-07T14:15:06.274Z,935.8
2018-01-07T14:16:38.477Z,935.5
2018-01-07T14:17:41.970Z,935.7
2018-01-07T14:19:15.134Z,935.7
2018-01-07T14:20:20.863Z,935.8
2018-01-07T14:21:24.956Z,935.8
2018-01-07T14:22:49.016Z,935.8
2018-01-07T14:24:02.568Z,935.8
2018-01-07T14:25:11.338Z,935.8
2018-01-07T14:26:43.099Z,935.8